createdAt,value
2018-09-14T01:00:28.044Z,0.00
2018-09-14T01:01:27.990Z,0.00
2018-09-14T01:02:28.019Z,0.00
2018-09-14T01:03:27.963Z,0.00
2018-09-14T01:04:27.953Z,0.00
2018-09-14T01:05:27.947Z,0.00
2018-09-14T01:06:27.928Z,0.00
2018-09-14T01:07:27.933Z,0.00
2018-09-14T01:08:27.950Z,0.00
2018-09-14T01:09:27.897Z,0.00
2018-09-14T01:10:27.886Z,0.00
2018-09-14T01:11:27.872Z,0.00
2018-09-14T01:12:27.863Z,0.00
2018-09-14T01:13:27.894Z,0.00
2018-09-14T01:14:27.845Z,0.00
2018-09-14T01:15:27.826Z,0.00
2018-09-14T01:16:27.816Z,0.00
2018-09-14T01:17:27.817Z,0.00
2018-09-14T01:18:27.837Z,0.00
2018-09-14T01:19:27.782Z,0.00
2018-09-14T01:20:27.771Z,0.00
2018-09-14T01:21:27.759Z,0.00
2018-09-14T01:22:27.751Z,0.00
2018-09-14T01:23:27.789Z,0.00
2018-09-14T01:24:27.726Z,0.00
2018-09-14T01:25:27.720Z,0.00
2018-09-14T01:26:27.705Z,0.00
2018-09-14T01:27:27.693Z,0.00
2018-09-14T01:28:27.726Z,0.00
2018-09-14T01:29:27.688Z,0.00
2018-09-14T01:30:27.665Z,0.00
2018-09-14T01:31:27.647Z,0.00
2018-09-14T01:32:27.641Z,0.00
2018-09-14T01:33:27.672Z,0.00
2018-09-14T01:34:27.617Z,0.00
2018-09-14T01:35:27.607Z,0.00
2018-09-14T01:36:27.596Z,0.00
2018-09-14T01:37:27.583Z,0.00
2018-09-14T01:38:27.617Z,0.00
2018-09-14T01:39:27.560Z,0.00
2018-09-14T01:40:27.550Z,0.00
2018-09-14T01:41:27.538Z,0.00
2018-09-14T01:42:27.530Z,0.00
2018-09-14T01:43:27.562Z,0.00
2018-09-14T01:44:27.505Z,0.00
2018-09-14T01:45:27.495Z,0.00
2018-09-14T01:46:27.488Z,0.00
2018-09-14T01:47:27.472Z,0.00
2018-09-14T01:48:27.509Z,0.00
2018-09-14T01:49:27.452Z,0.00
2018-09-14T01:50:27.443Z,0.00
2018-09-14T01:51:27.429Z,0.00
2018-09-14T01:52:27.423Z,0.00
2018-09-14T01:53:27.457Z,0.00
2018-09-14T01:54:27.395Z,0.00
2018-09-14T01:55:27.387Z,0.00
2018-09-14T01:56:27.375Z,0.00
2018-09-14T01:57:27.366Z,0.00
2018-09-14T01:58:27.397Z,0.00
2018-09-14T01:59:27.345Z,0.00
2018-09-14T02:00:27.331Z,0.00
2018-09-14T02:01:27.321Z,0.00
2018-09-14T02:02:27.308Z,0.00
2018-09-14T02:03:27.360Z,0.00
2018-09-14T02:04:27.286Z,0.00
2018-09-14T02:05:27.276Z,0.00
2018-09-14T02:06:27.267Z,0.00
2018-09-14T02:07:27.255Z,0.00
2018-09-14T02:08:27.289Z,0.00
2018-09-14T02:09:27.230Z,0.00
2018-09-14T02:10:27.223Z,0.00
2018-09-14T02:11:27.214Z,0.00
2018-09-14T02:12:27.198Z,0.00
2018-09-14T02:13:27.235Z,0.00
2018-09-14T02:14:27.179Z,0.00
2018-09-14T02:15:27.166Z,0.00
2018-09-14T02:16:27.153Z,0.00
2018-09-14T02:17:27.148Z,0.00
2018-09-14T02:18:27.177Z,0.00
2018-09-14T02:19:27.166Z,0.00
2018-09-14T02:20:27.119Z,0.00
2018-09-14T02:21:27.102Z,0.00
2018-09-14T02:22:27.091Z,0.00
2018-09-14T02:23:27.131Z,0.00
2018-09-14T02:24:27.069Z,0.00
2018-09-14T02:25:27.076Z,0.00
2018-09-14T02:26:27.047Z,0.00
2018-09-14T02:27:27.033Z,0.00
2018-09-14T02:28:27.082Z,0.00
2018-09-14T02:29:27.012Z,0.00
2018-09-14T02:30:27.000Z,0.00
2018-09-14T02:31:26.996Z,0.00
2018-09-14T02:32:26.976Z,0.00
2018-09-14T02:33:27.013Z,0.00
2018-09-14T02:34:26.958Z,0.00
2018-09-14T02:35:26.946Z,0.00
2018-09-14T02:36:26.935Z,0.00
2018-09-14T02:37:26.924Z,0.00
2018-09-14T02:38:26.957Z,0.00
2018-09-14T02:39:26.903Z,0.00
2018-09-14T02:40:26.893Z,0.00
2018-09-14T02:41:26.879Z,0.00
2018-09-14T02:42:26.868Z,0.00
2018-09-14T02:43:26.904Z,0.00
2018-09-14T02:44:26.847Z,0.00
2018-09-14T02:45:26.836Z,0.00
2018-09-14T02:46:26.825Z,0.00
2018-09-14T02:47:26.867Z,0.00
2018-09-14T02:48:26.853Z,0.00
2018-09-14T02:49:26.800Z,0.00
2018-09-14T02:50:26.780Z,0.00
2018-09-14T02:51:26.772Z,0.00
2018-09-14T02:52:26.762Z,0.00
2018-09-14T02:53:26.794Z,0.00
2018-09-14T02:54:26.738Z,0.00
2018-09-14T02:55:26.729Z,0.00
2018-09-14T02:56:26.716Z,0.00
2018-09-14T02:57:26.703Z,0.00
2018-09-14T02:58:26.738Z,0.00
2018-09-14T02:59:26.683Z,0.00
2018-09-14T03:00:26.672Z,0.00
2018-09-14T03:01:26.661Z,0.00
2018-09-14T03:02:26.656Z,0.00
2018-09-14T03:03:26.688Z,0.00
2018-09-14T03:04:26.626Z,0.00
2018-09-14T03:05:26.623Z,0.00
2018-09-14T03:06:26.606Z,0.00
2018-09-14T03:07:26.594Z,0.00
2018-09-14T03:08:26.641Z,0.00
2018-09-14T03:09:26.574Z,0.00
2018-09-14T03:10:26.563Z,0.00
2018-09-14T03:11:26.550Z,0.00
2018-09-14T03:12:26.539Z,0.00
2018-09-14T03:13:26.573Z,0.00
2018-09-14T03:14:26.517Z,0.00
2018-09-14T03:15:26.513Z,0.00
2018-09-14T03:16:26.500Z,0.00
2018-09-14T03:17:26.483Z,0.00
2018-09-14T03:18:26.522Z,0.00
2018-09-14T03:19:26.462Z,0.00
2018-09-14T03:20:26.454Z,0.00
2018-09-14T03:21:26.446Z,0.00
2018-09-14T03:22:26.429Z,0.00
2018-09-14T03:23:26.474Z,0.00
2018-09-14T03:24:26.407Z,0.00
2018-09-14T03:25:26.395Z,0.00
2018-09-14T03:26:26.384Z,0.00
2018-09-14T03:27:26.373Z,0.00
2018-09-14T03:28:26.363Z,0.00
2018-09-14T03:29:26.412Z,0.00
2018-09-14T03:30:26.341Z,0.00
2018-09-14T03:31:26.327Z,0.00
2018-09-14T03:32:26.324Z,0.00
2018-09-14T03:33:26.309Z,0.00
2018-09-14T03:34:26.342Z,0.00
2018-09-14T03:35:26.285Z,0.00
2018-09-14T03:36:26.281Z,0.00
2018-09-14T03:37:26.264Z,0.00
2018-09-14T03:38:26.255Z,0.00
2018-09-14T03:39:26.413Z,0.00
2018-09-14T03:40:26.229Z,0.00
2018-09-14T03:41:26.227Z,0.00
2018-09-14T03:42:26.208Z,0.00
2018-09-14T03:43:26.197Z,0.00
2018-09-14T03:44:26.237Z,0.00
2018-09-14T03:45:26.173Z,0.00
2018-09-14T03:46:26.163Z,0.00
2018-09-14T03:47:26.153Z,0.00
2018-09-14T03:48:26.142Z,0.00
2018-09-14T03:49:26.181Z,0.00
2018-09-14T03:50:26.121Z,0.00
2018-09-14T03:51:26.111Z,0.00
2018-09-14T03:52:26.099Z,0.00
2018-09-14T03:53:26.087Z,0.00
2018-09-14T03:54:26.123Z,0.00
2018-09-14T03:55:26.068Z,0.00
2018-09-14T03:56:26.058Z,0.00
2018-09-14T03:57:26.074Z,0.00
2018-09-14T03:58:26.033Z,0.00
2018-09-14T03:59:26.071Z,0.00
2018-09-14T04:00:26.007Z,0.00
2018-09-14T04:01:25.998Z,0.00
2018-09-14T04:02:25.997Z,0.00
2018-09-14T04:03:25.976Z,0.00
2018-09-14T04:04:26.009Z,0.00
2018-09-14T04:05:25.952Z,0.00
2018-09-14T04:06:25.943Z,0.00
2018-09-14T04:07:25.939Z,0.00
2018-09-14T04:08:25.920Z,0.00
2018-09-14T04:09:25.954Z,0.00
2018-09-14T04:10:25.897Z,0.00
2018-09-14T04:11:25.895Z,0.00
2018-09-14T04:12:25.878Z,0.00
2018-09-14T04:13:25.873Z,0.00
2018-09-14T04:14:25.902Z,0.00
2018-09-14T04:15:25.842Z,0.00
2018-09-14T04:16:25.830Z,0.00
2018-09-14T04:17:25.819Z,0.00
2018-09-14T04:18:25.811Z,0.00
2018-09-14T04:19:25.853Z,0.00
2018-09-14T04:20:25.786Z,0.00
2018-09-14T04:21:25.775Z,0.00
2018-09-14T04:22:25.777Z,0.00
2018-09-14T04:23:25.793Z,0.00
2018-09-14T04:24:25.788Z,0.00
2018-09-14T04:25:25.734Z,0.00
2018-09-14T04:26:25.721Z,0.00
2018-09-14T04:27:25.711Z,0.00
2018-09-14T04:28:25.715Z,0.00
2018-09-14T04:29:25.733Z,0.00
2018-09-14T04:30:25.674Z,0.00
2018-09-14T04:31:25.664Z,0.00
2018-09-14T04:32:25.653Z,0.00
2018-09-14T04:33:25.646Z,0.00
2018-09-14T04:34:25.685Z,0.00
2018-09-14T04:35:25.621Z,0.00
2018-09-14T04:36:25.608Z,0.00
2018-09-14T04:37:25.607Z,0.00
2018-09-14T04:38:25.626Z,0.00
2018-09-14T04:39:25.631Z,4.00
2018-09-14T04:40:25.565Z,0.00
2018-09-14T04:41:25.553Z,4.00
2018-09-14T04:42:25.541Z,4.00
2018-09-14T04:43:25.531Z,4.00
2018-09-14T04:44:25.563Z,8.00
2018-09-14T04:45:25.508Z,8.00
2018-09-14T04:46:25.496Z,8.00
2018-09-14T04:47:25.489Z,8.00
2018-09-14T04:48:25.536Z,8.00
2018-09-14T04:49:25.519Z,12.00
2018-09-14T04:50:25.453Z,12.00
2018-09-14T04:51:25.479Z,12.00
2018-09-14T04:52:25.431Z,20.00
2018-09-14T04:53:25.421Z,16.00
2018-09-14T04:54:25.452Z,20.00
2018-09-14T04:55:25.400Z,24.00
2018-09-14T04:56:25.384Z,20.00
2018-09-14T04:57:25.518Z,20.00
2018-09-14T04:58:25.373Z,28.00
2018-09-14T04:59:25.398Z,24.00
2018-09-14T05:00:25.341Z,28.00
2018-09-14T05:01:25.328Z,28.00
2018-09-14T05:02:25.317Z,32.00
2018-09-14T05:03:25.310Z,36.00
2018-09-14T05:04:25.341Z,44.00
2018-09-14T05:05:25.290Z,48.00
2018-09-14T05:06:25.273Z,52.00
2018-09-14T05:07:25.263Z,56.00
2018-09-14T05:08:25.250Z,60.00
2018-09-14T05:09:25.295Z,64.00
2018-09-14T05:10:25.229Z,76.00
2018-09-14T05:11:25.222Z,84.00
2018-09-14T05:12:25.207Z,92.00
2018-09-14T05:13:25.197Z,100.00
2018-09-14T05:14:25.229Z,108.00
2018-09-14T05:15:25.195Z,120.00
2018-09-14T05:16:25.161Z,128.00
2018-09-14T05:17:25.155Z,132.00
2018-09-14T05:18:25.147Z,140.00
2018-09-14T05:19:25.187Z,148.00
2018-09-14T05:20:25.136Z,152.00
2018-09-14T05:21:25.107Z,156.00
2018-09-14T05:22:25.097Z,164.00
2018-09-14T05:23:25.087Z,172.00
2018-09-14T05:24:25.092Z,184.00
2018-09-14T05:25:25.110Z,192.00
2018-09-14T05:26:25.051Z,208.00
2018-09-14T05:27:25.044Z,220.00
2018-09-14T05:28:25.028Z,232.00
2018-09-14T05:29:25.017Z,236.00
2018-09-14T05:30:25.057Z,244.00
2018-09-14T05:31:24.995Z,260.00
2018-09-14T05:32:24.984Z,264.00
2018-09-14T05:33:24.980Z,272.00
2018-09-14T05:34:24.975Z,280.00
2018-09-14T05:35:24.995Z,320.00
2018-09-14T05:36:24.939Z,344.00
2018-09-14T05:37:24.927Z,360.00
2018-09-14T05:38:25.017Z,392.00
2018-09-14T05:39:24.910Z,452.00
2018-09-14T05:40:24.939Z,444.00
2018-09-14T05:41:24.896Z,436.00
2018-09-14T05:42:24.872Z,444.00
2018-09-14T05:43:24.863Z,480.00
2018-09-14T05:44:24.852Z,488.00
2018-09-14T05:45:24.885Z,456.00
2018-09-14T05:46:24.829Z,452.00
2018-09-14T05:47:24.816Z,428.00
2018-09-14T05:48:24.805Z,412.00
2018-09-14T05:49:24.799Z,404.00
2018-09-14T05:50:24.828Z,380.00
2018-09-14T05:51:24.777Z,376.00
2018-09-14T05:52:24.766Z,384.00
2018-09-14T05:53:24.751Z,424.00
2018-09-14T05:54:24.747Z,508.00
2018-09-14T05:55:24.773Z,592.00
2018-09-14T05:56:24.718Z,632.00
2018-09-14T05:57:24.709Z,624.00
2018-09-14T05:58:24.694Z,604.00
2018-09-14T05:59:24.683Z,576.00
2018-09-14T06:00:24.722Z,560.00
2018-09-14T06:01:24.664Z,548.00
2018-09-14T06:02:24.649Z,544.00
2018-09-14T06:03:24.644Z,528.00
2018-09-14T06:04:24.628Z,568.00
2018-09-14T06:05:24.668Z,600.00
2018-09-14T06:06:24.643Z,620.00
2018-09-14T06:07:24.596Z,660.00
2018-09-14T06:08:24.584Z,672.00
2018-09-14T06:09:24.573Z,672.00
2018-09-14T06:10:24.609Z,624.00
2018-09-14T06:11:24.548Z,604.00
2018-09-14T06:12:24.542Z,628.00
2018-09-14T06:13:24.532Z,712.00
2018-09-14T06:14:24.518Z,832.00
2018-09-14T06:15:24.551Z,936.00
2018-09-14T06:16:24.493Z,956.00
2018-09-14T06:17:24.482Z,952.00
2018-09-14T06:18:24.475Z,972.00
2018-09-14T06:19:24.465Z,984.00
2018-09-14T06:20:24.497Z,1036.00
2018-09-14T06:21:24.441Z,1124.00
2018-09-14T06:22:24.482Z,1152.00
2018-09-14T06:23:24.416Z,1100.00
2018-09-14T06:24:24.404Z,1076.00
2018-09-14T06:25:24.442Z,1152.00
2018-09-14T06:26:24.383Z,1308.00
2018-09-14T06:27:24.371Z,1580.00
2018-09-14T06:28:24.360Z,1728.00
2018-09-14T06:29:24.349Z,1708.00
2018-09-14T06:30:24.406Z,1696.00
2018-09-14T06:31:24.326Z,1632.00
2018-09-14T06:32:24.320Z,1592.00
2018-09-14T06:33:24.308Z,1524.00
2018-09-14T06:34:24.296Z,1540.00
2018-09-14T06:35:24.345Z,1372.00
2018-09-14T06:36:24.279Z,1240.00
2018-09-14T06:37:24.312Z,1188.00
2018-09-14T06:38:24.254Z,1172.00
2018-09-14T06:39:24.255Z,1208.00
2018-09-14T06:40:24.331Z,1300.00
2018-09-14T06:41:24.227Z,1440.00
2018-09-14T06:42:24.207Z,1480.00
2018-09-14T06:43:24.199Z,1544.00
2018-09-14T06:44:24.192Z,1580.00
2018-09-14T06:45:24.245Z,1544.00
2018-09-14T06:46:24.163Z,1476.00
2018-09-14T06:47:24.152Z,1560.00
2018-09-14T06:48:24.142Z,1676.00
2018-09-14T06:49:24.130Z,1728.00
2018-09-14T06:50:24.165Z,1832.00
2018-09-14T06:51:24.109Z,2036.00
2018-09-14T06:52:24.101Z,2060.00
2018-09-14T06:53:24.153Z,1948.00
2018-09-14T06:54:24.075Z,1880.00
2018-09-14T06:55:24.109Z,1856.00
2018-09-14T06:56:24.053Z,1852.00
2018-09-14T06:57:24.044Z,1812.00
2018-09-14T06:58:24.031Z,1804.00
2018-09-14T06:59:24.027Z,1884.00
2018-09-14T07:00:24.165Z,1968.00
2018-09-14T07:01:24.001Z,2040.00
2018-09-14T07:02:23.985Z,2176.00
2018-09-14T07:03:23.979Z,2516.00
2018-09-14T07:04:23.965Z,2564.00
2018-09-14T07:05:23.997Z,2388.00
2018-09-14T07:06:23.958Z,2248.00
2018-09-14T07:07:23.940Z,2272.00
2018-09-14T07:08:23.919Z,2136.00
2018-09-14T07:09:23.911Z,1948.00
2018-09-14T07:10:23.943Z,1756.00
2018-09-14T07:11:25.023Z,1664.00
2018-09-14T07:12:24.929Z,1692.00
2018-09-14T07:13:23.866Z,1796.00
2018-09-14T07:14:23.858Z,1996.00
2018-09-14T07:15:23.885Z,1944.00
2018-09-14T07:16:23.844Z,1820.00
2018-09-14T07:17:23.821Z,1868.00
2018-09-14T07:18:23.809Z,2240.00
2018-09-14T07:19:23.803Z,2544.00
2018-09-14T07:20:23.836Z,2680.00
2018-09-14T07:21:23.777Z,2608.00
2018-09-14T07:22:23.819Z,2548.00
2018-09-14T07:23:23.755Z,2524.00
2018-09-14T07:24:23.756Z,2468.00
2018-09-14T07:25:23.780Z,2512.00
2018-09-14T07:26:23.752Z,2476.00
2018-09-14T07:27:23.716Z,2312.00
2018-09-14T07:28:23.726Z,2292.00
2018-09-14T07:29:23.706Z,2292.00
2018-09-14T07:30:23.724Z,2352.00
2018-09-14T07:31:23.700Z,2436.00
2018-09-14T07:32:23.664Z,2584.00
2018-09-14T07:33:23.645Z,2760.00
2018-09-14T07:34:23.632Z,2968.00
2018-09-14T07:35:23.669Z,3208.00
2018-09-14T07:36:23.659Z,3236.00
2018-09-14T07:37:23.598Z,3128.00
2018-09-14T07:38:23.587Z,2968.00
2018-09-14T07:39:23.580Z,2752.00
2018-09-14T07:40:23.565Z,2688.00
2018-09-14T07:41:23.603Z,2684.00
2018-09-14T07:42:23.550Z,2816.00
2018-09-14T07:43:23.530Z,2908.00
2018-09-14T07:44:23.520Z,2800.00
2018-09-14T07:45:23.509Z,2876.00
2018-09-14T07:46:23.544Z,3068.00
2018-09-14T07:47:23.510Z,2964.00
2018-09-14T07:48:23.557Z,2940.00
2018-09-14T07:49:23.464Z,3104.00
2018-09-14T07:50:23.451Z,3392.00
2018-09-14T07:51:23.484Z,3996.00
2018-09-14T07:52:23.430Z,4164.00
2018-09-14T07:53:23.416Z,5220.00
2018-09-14T07:54:23.410Z,3204.00
2018-09-14T07:55:23.448Z,3184.00
2018-09-14T07:56:23.432Z,2956.00
2018-09-14T07:57:23.372Z,3236.00
2018-09-14T07:58:23.362Z,3444.00
2018-09-14T07:59:23.353Z,3596.00
2018-09-14T08:00:23.340Z,3628.00
2018-09-14T08:01:23.372Z,3684.00
2018-09-14T08:02:23.321Z,3660.00
2018-09-14T08:03:23.307Z,3584.00
2018-09-14T08:04:23.303Z,3528.00
2018-09-14T08:05:23.284Z,3404.00
2018-09-14T08:06:23.319Z,3424.00
2018-09-14T08:07:23.295Z,3656.00
2018-09-14T08:08:23.249Z,3860.00
2018-09-14T08:09:23.241Z,4944.00
2018-09-14T08:10:23.227Z,4648.00
2018-09-14T08:11:23.261Z,4684.00
2018-09-14T08:12:23.209Z,4260.00
2018-09-14T08:13:23.329Z,4120.00
2018-09-14T08:14:23.195Z,4084.00
2018-09-14T08:15:23.173Z,4228.00
2018-09-14T08:16:23.207Z,4548.00
2018-09-14T08:17:23.152Z,5280.00
2018-09-14T08:18:23.139Z,4728.00
2018-09-14T08:19:23.131Z,4396.00
2018-09-14T08:20:23.122Z,4424.00
2018-09-14T08:21:23.167Z,4680.00
2018-09-14T08:22:23.116Z,4708.00
2018-09-14T08:23:23.085Z,4572.00
2018-09-14T08:24:23.073Z,4488.00
2018-09-14T08:25:23.061Z,4256.00
2018-09-14T08:26:23.097Z,4084.00
2018-09-14T08:27:23.039Z,3724.00
2018-09-14T08:28:23.029Z,3644.00
2018-09-14T08:29:23.022Z,3976.00
2018-09-14T08:30:23.008Z,4320.00
2018-09-14T08:31:23.046Z,4648.00
2018-09-14T08:32:23.004Z,4476.00
2018-09-14T08:33:22.973Z,4532.00
2018-09-14T08:34:22.963Z,4628.00
2018-09-14T08:35:22.961Z,4464.00
2018-09-14T08:36:22.939Z,3820.00
2018-09-14T08:37:22.992Z,3508.00
2018-09-14T08:38:22.918Z,2796.00
2018-09-14T08:39:22.907Z,2764.00
2018-09-14T08:40:22.902Z,2324.00
2018-09-14T08:41:22.890Z,2124.00
2018-09-14T08:42:22.918Z,2320.00
2018-09-14T08:43:22.869Z,2536.00
2018-09-14T08:44:22.851Z,3492.00
2018-09-14T08:45:22.843Z,3108.00
2018-09-14T08:46:22.831Z,3352.00
2018-09-14T08:47:22.864Z,4108.00
2018-09-14T08:48:22.808Z,4736.00
2018-09-14T08:49:22.796Z,5508.00
2018-09-14T08:50:22.785Z,6084.00
2018-09-14T08:51:22.773Z,6280.00
2018-09-14T08:52:22.808Z,6068.00
2018-09-14T08:53:22.753Z,6092.00
2018-09-14T08:54:22.742Z,6188.00
2018-09-14T08:55:22.735Z,5832.00
2018-09-14T08:56:22.717Z,5444.00
2018-09-14T08:57:22.753Z,5140.00
2018-09-14T08:58:22.696Z,4812.00
2018-09-14T08:59:22.696Z,4552.00
2018-09-14T09:00:22.675Z,4048.00
2018-09-14T09:01:22.685Z,3960.00
2018-09-14T09:02:22.710Z,4444.00
2018-09-14T09:03:22.641Z,4924.00
2018-09-14T09:04:22.630Z,5408.00
2018-09-14T09:05:22.618Z,5524.00
2018-09-14T09:06:22.606Z,5444.00
2018-09-14T09:07:22.703Z,5440.00
2018-09-14T09:08:22.587Z,5336.00
2018-09-14T09:09:22.580Z,5524.00
2018-09-14T09:10:22.562Z,5600.00
2018-09-14T09:11:22.613Z,5560.00
2018-09-14T09:12:22.594Z,5476.00
2018-09-14T09:13:22.531Z,5184.00
2018-09-14T09:14:22.520Z,4756.00
2018-09-14T09:15:22.513Z,4692.00
2018-09-14T09:16:22.497Z,4736.00
2018-09-14T09:17:22.533Z,4916.00
2018-09-14T09:18:22.476Z,4884.00
2018-09-14T09:19:22.511Z,4828.00
2018-09-14T09:20:22.456Z,5096.00
2018-09-14T09:21:22.440Z,5516.00
2018-09-14T09:22:22.485Z,6108.00
2018-09-14T09:23:22.436Z,6396.00
2018-09-14T09:24:22.408Z,7036.00
2018-09-14T09:25:22.397Z,7232.00
2018-09-14T09:26:22.450Z,7552.00
2018-09-14T09:27:22.430Z,5704.00
2018-09-14T09:28:22.362Z,4812.00
2018-09-14T09:29:22.386Z,4328.00
2018-09-14T09:30:22.345Z,4100.00
2018-09-14T09:31:22.334Z,3696.00
2018-09-14T09:32:22.365Z,4580.00
2018-09-14T09:33:22.308Z,4512.00
2018-09-14T09:34:22.298Z,3944.00
2018-09-14T09:35:22.288Z,3472.00
2018-09-14T09:36:22.280Z,3280.00
2018-09-14T09:37:22.312Z,2556.00
2018-09-14T09:38:22.254Z,2304.00
2018-09-14T09:39:22.242Z,2284.00
2018-09-14T09:40:22.250Z,2276.00
2018-09-14T09:41:22.219Z,2252.00
2018-09-14T09:42:22.254Z,2352.00
2018-09-14T09:43:22.419Z,2528.00
2018-09-14T09:44:22.187Z,2468.00
2018-09-14T09:45:22.178Z,2568.00
2018-09-14T09:46:22.167Z,2564.00
2018-09-14T09:47:22.202Z,2776.00
2018-09-14T09:48:22.144Z,3512.00
2018-09-14T09:49:22.133Z,3896.00
2018-09-14T09:50:22.125Z,3852.00
2018-09-14T09:51:22.180Z,3932.00
2018-09-14T09:52:22.147Z,3904.00
2018-09-14T09:53:22.089Z,3880.00
2018-09-14T09:54:22.078Z,3812.00
2018-09-14T09:55:22.088Z,3796.00
2018-09-14T09:56:22.057Z,4176.00
2018-09-14T09:57:22.091Z,4848.00
2018-09-14T09:58:22.038Z,5424.00
2018-09-14T09:59:22.025Z,5692.00
2018-09-14T10:00:22.013Z,6176.00
2018-09-14T10:01:22.002Z,5760.00
2018-09-14T10:02:22.037Z,6224.00
2018-09-14T10:03:21.979Z,6812.00
2018-09-14T10:04:21.968Z,7408.00
2018-09-14T10:05:21.959Z,8080.00
2018-09-14T10:06:21.946Z,8792.00
2018-09-14T10:07:21.998Z,8236.00
2018-09-14T10:08:21.928Z,7476.00
2018-09-14T10:09:21.915Z,6948.00
2018-09-14T10:10:21.902Z,6888.00
2018-09-14T10:11:21.890Z,6044.00
2018-09-14T10:12:21.882Z,5696.00
2018-09-14T10:13:21.920Z,5796.00
2018-09-14T10:14:21.861Z,5268.00
2018-09-14T10:15:21.852Z,4536.00
2018-09-14T10:16:21.838Z,4588.00
2018-09-14T10:17:21.827Z,4672.00
2018-09-14T10:18:21.861Z,4624.00
2018-09-14T10:19:21.804Z,4456.00
2018-09-14T10:20:21.839Z,4180.00
2018-09-14T10:21:21.805Z,3648.00
2018-09-14T10:22:21.772Z,3440.00
2018-09-14T10:23:21.805Z,3008.00
2018-09-14T10:24:21.748Z,2852.00
2018-09-14T10:25:21.740Z,2892.00
2018-09-14T10:26:21.732Z,3280.00
2018-09-14T10:27:21.720Z,3120.00
2018-09-14T10:28:21.755Z,3284.00
2018-09-14T10:29:21.705Z,3676.00
2018-09-14T10:30:21.685Z,4152.00
2018-09-14T10:31:21.672Z,4568.00
2018-09-14T10:32:21.662Z,4748.00
2018-09-14T10:33:21.699Z,5252.00
2018-09-14T10:34:21.643Z,5960.00
2018-09-14T10:35:21.630Z,7132.00
2018-09-14T10:36:21.623Z,8276.00
2018-09-14T10:37:21.608Z,8692.00
2018-09-14T10:38:21.701Z,6944.00
2018-09-14T10:39:21.587Z,7132.00
2018-09-14T10:40:21.580Z,7348.00
2018-09-14T10:41:21.563Z,7368.00
2018-09-14T10:42:21.556Z,6348.00
2018-09-14T10:43:21.586Z,5796.00
2018-09-14T10:44:21.533Z,5680.00
2018-09-14T10:45:21.551Z,5572.00
2018-09-14T10:46:21.510Z,5296.00
2018-09-14T10:47:21.497Z,4864.00
2018-09-14T10:48:21.533Z,4476.00
2018-09-14T10:49:21.476Z,4496.00
2018-09-14T10:50:21.468Z,4076.00
2018-09-14T10:51:21.457Z,4280.00
2018-09-14T10:52:21.490Z,4100.00
2018-09-14T10:53:21.482Z,4092.00
2018-09-14T10:54:21.425Z,4456.00
2018-09-14T10:55:21.466Z,4964.00
2018-09-14T10:56:21.401Z,5720.00
2018-09-14T10:57:21.387Z,6704.00
2018-09-14T10:58:21.421Z,7048.00
2018-09-14T10:59:21.364Z,6548.00
2018-09-14T11:00:21.360Z,6204.00
2018-09-14T11:01:21.342Z,5676.00
2018-09-14T11:02:21.331Z,5172.00
2018-09-14T11:03:21.376Z,5036.00
2018-09-14T11:04:21.320Z,5272.00
2018-09-14T11:05:21.299Z,5172.00
2018-09-14T11:06:21.293Z,5000.00
2018-09-14T11:07:21.277Z,4992.00
2018-09-14T11:08:21.328Z,5280.00
2018-09-14T11:09:21.255Z,5032.00
2018-09-14T11:10:21.246Z,5372.00
2018-09-14T11:11:21.235Z,5500.00
2018-09-14T11:12:21.218Z,5584.00
2018-09-14T11:13:21.252Z,5916.00
2018-09-14T11:14:21.197Z,6084.00
2018-09-14T11:15:21.188Z,6552.00
2018-09-14T11:16:21.179Z,6448.00
2018-09-14T11:17:21.163Z,6420.00
2018-09-14T11:18:21.202Z,6480.00
2018-09-14T11:19:21.139Z,6824.00
2018-09-14T11:20:21.128Z,7272.00
2018-09-14T11:21:21.131Z,7164.00
2018-09-14T11:22:21.105Z,7420.00
2018-09-14T11:23:21.141Z,7244.00
2018-09-14T11:24:21.083Z,7296.00
2018-09-14T11:25:21.094Z,7108.00
2018-09-14T11:26:21.066Z,6780.00
2018-09-14T11:27:21.053Z,7260.00
2018-09-14T11:28:21.088Z,7488.00
2018-09-14T11:29:21.027Z,6764.00
2018-09-14T11:30:21.017Z,6640.00
2018-09-14T11:31:21.004Z,7400.00
2018-09-14T11:32:21.055Z,7252.00
2018-09-14T11:33:21.028Z,7608.00
2018-09-14T11:34:20.972Z,7464.00
2018-09-14T11:35:20.960Z,7244.00
2018-09-14T11:36:20.948Z,13260.00
2018-09-14T11:37:20.944Z,8384.00
2018-09-14T11:38:21.074Z,8092.00
2018-09-14T11:39:20.917Z,7096.00
2018-09-14T11:40:20.906Z,7448.00
2018-09-14T11:41:20.894Z,7980.00
2018-09-14T11:42:20.885Z,8604.00
2018-09-14T11:43:20.875Z,8620.00
2018-09-14T11:44:20.910Z,8752.00
2018-09-14T11:45:20.886Z,9064.00
2018-09-14T11:46:20.839Z,8928.00
2018-09-14T11:47:20.826Z,8040.00
2018-09-14T11:48:20.819Z,6500.00
2018-09-14T11:49:20.849Z,4960.00
2018-09-14T11:50:20.793Z,4956.00
2018-09-14T11:51:20.784Z,5836.00
2018-09-14T11:52:20.774Z,7136.00
2018-09-14T11:53:20.762Z,9368.00
2018-09-14T11:54:21.020Z,19392.00
2018-09-14T11:55:20.740Z,17696.00
2018-09-14T11:56:20.731Z,15008.00
2018-09-14T11:57:20.722Z,9352.00
2018-09-14T11:58:20.778Z,8900.00
2018-09-14T11:59:20.740Z,13208.00
2018-09-14T12:00:20.686Z,30144.00
2018-09-14T12:01:20.701Z,50272.00
2018-09-14T12:02:20.662Z,49440.00
2018-09-14T12:03:20.650Z,49344.00
2018-09-14T12:04:20.729Z,42944.00
2018-09-14T12:05:20.629Z,44832.00
2018-09-14T12:06:20.624Z,48928.00
2018-09-14T12:07:20.608Z,50688.00
2018-09-14T12:08:20.601Z,49248.00
2018-09-14T12:09:20.634Z,50560.00
2018-09-14T12:10:20.577Z,50176.00
2018-09-14T12:11:20.565Z,48384.00
2018-09-14T12:12:20.568Z,32000.00
2018-09-14T12:13:20.548Z,42944.00
2018-09-14T12:14:20.578Z,28352.00
2018-09-14T12:15:20.534Z,42464.00
2018-09-14T12:16:20.509Z,27872.00
2018-09-14T12:17:20.501Z,23808.00
2018-09-14T12:18:20.490Z,42528.00
2018-09-14T12:19:20.527Z,38528.00
2018-09-14T12:20:20.468Z,31584.00
2018-09-14T12:21:20.457Z,30752.00
2018-09-14T12:22:20.537Z,42848.00
2018-09-14T12:23:20.439Z,41792.00
2018-09-14T12:24:20.499Z,43904.00
2018-09-14T12:25:20.436Z,51616.00
2018-09-14T12:26:20.401Z,50016.00
2018-09-14T12:27:20.402Z,2936.00
2018-09-14T12:28:20.423Z,2932.00
2018-09-14T12:29:20.417Z,2652.00
2018-09-14T12:30:20.359Z,2548.00
2018-09-14T12:31:20.347Z,2016.00
2018-09-14T12:32:20.336Z,1708.00
2018-09-14T12:33:20.327Z,1568.00
2018-09-14T12:34:20.359Z,1504.00
2018-09-14T12:35:20.307Z,1576.00
2018-09-14T12:36:20.300Z,2000.00
2018-09-14T12:37:20.283Z,56544.00
2018-09-14T12:38:20.277Z,4104.00
2018-09-14T12:39:20.307Z,6388.00
2018-09-14T12:40:20.251Z,4492.00
2018-09-14T12:41:20.245Z,3360.00
2018-09-14T12:42:20.228Z,3368.00
2018-09-14T12:43:20.217Z,3248.00
2018-09-14T12:44:20.209Z,3380.00
2018-09-14T12:45:20.239Z,4852.00
2018-09-14T12:46:20.187Z,4216.00
2018-09-14T12:47:20.191Z,4088.00
2018-09-14T12:48:20.161Z,3552.00
2018-09-14T12:49:20.155Z,3152.00
2018-09-14T12:50:20.185Z,3176.00
2018-09-14T12:51:20.129Z,3340.00
2018-09-14T12:52:20.127Z,3660.00
2018-09-14T12:53:20.110Z,3800.00
2018-09-14T12:54:20.095Z,4204.00
2018-09-14T12:55:20.127Z,3596.00
2018-09-14T12:56:20.135Z,3280.00
2018-09-14T12:57:20.068Z,3240.00
2018-09-14T12:58:20.058Z,3272.00
2018-09-14T12:59:20.042Z,3096.00
2018-09-14T13:00:20.077Z,2968.00
2018-09-14T13:01:20.020Z,3024.00
2018-09-14T13:02:20.013Z,3108.00
2018-09-14T13:03:19.995Z,3208.00
2018-09-14T13:04:20.076Z,3136.00
2018-09-14T13:05:20.021Z,3112.00
2018-09-14T13:06:19.966Z,3592.00
2018-09-14T13:07:19.954Z,3924.00
2018-09-14T13:08:19.943Z,3932.00
2018-09-14T13:09:19.931Z,4168.00
2018-09-14T13:10:19.966Z,4604.00
2018-09-14T13:11:19.911Z,4928.00
2018-09-14T13:12:19.900Z,4512.00
2018-09-14T13:13:19.886Z,4336.00
2018-09-14T13:14:19.876Z,4260.00
2018-09-14T13:15:19.931Z,3856.00
2018-09-14T13:16:19.854Z,3372.00
2018-09-14T13:17:19.842Z,3544.00
2018-09-14T13:18:19.835Z,3472.00
2018-09-14T13:19:19.820Z,2980.00
2018-09-14T13:20:19.855Z,2620.00
2018-09-14T13:21:19.804Z,2496.00
2018-09-14T13:22:19.793Z,2560.00
2018-09-14T13:23:19.776Z,2712.00
2018-09-14T13:24:19.873Z,3012.00
2018-09-14T13:25:19.817Z,2840.00
2018-09-14T13:26:19.747Z,2872.00
2018-09-14T13:27:19.739Z,2884.00
2018-09-14T13:28:19.724Z,2396.00
2018-09-14T13:29:19.712Z,2720.00